sensor_id;sensor_type;location;lat;lon;timestamp;pressure;altitude;pressure_sealevel;temperature;humidity
15914;BME280;8055;51.930;8.840;2023-04-01T00:02:00;74684.69;;;-145.72;100.00
15914;BME280;8055;51.930;8.840;2023-04-01T00:04:25;74674.34;;;-145.72;100.00
15914;BME280;8055;51.930;8.840;2023-04-01T00:06:50;74678.50;;;-145.72;100.00
15914;BME280;8055;51.930;8.840;2023-04-01T00:09:17;74668.16;;;-145.72;100.00
15914;BME280;8055;51.930;8.840;2023-04-01T00:11:42;74670.22;;;-145.72;100.00
15914;BME280;8055;51.930;8.840;2023-04-01T00:14:09;74678.50;;;-145.72;100.00
15914;BME280;8055;51.930;8.840;2023-04-01T00:16:36;74678.50;;;-145.72;100.00
15914;BME280;8055;51.930;8.840;2023-04-01T00:19:01;74686.75;;;-145.72;100.00
15914;BME280;8055;51.930;8.840;2023-04-01T00:21:26;74684.69;;;-145.72;100.00
15914;BME280;8055;51.930;8.840;2023-04-01T00:23:52;74688.84;;;-145.72;100.00
15914;BME280;8055;51.930;8.840;2023-04-01T00:26:18;74678.50;;;-145.72;100.00
15914;BME280;8055;51.930;8.840;2023-04-01T00:28:46;74686.75;;;-145.72;100.00
15914;BME280;8055;51.930;8.840;2023-04-01T00:31:12;74688.84;;;-145.72;100.00
15914;BME280;8055;51.930;8.840;2023-04-01T00:33:38;74678.50;;;-145.72;100.00
15914;BME280;8055;51.930;8.840;2023-04-01T00:36:11;74682.63;;;-145.72;100.00
15914;BME280;8055;51.930;8.840;2023-04-01T00:38:37;74686.75;;;-145.72;100.00
15914;BME280;8055;51.930;8.840;2023-04-01T00:41:03;74686.75;;;-145.72;100.00
15914;BME280;8055;51.930;8.840;2023-04-01T00:43:29;74680.56;;;-145.72;100.00
15914;BME280;8055;51.930;8.840;2023-04-01T00:45:55;74684.69;;;-145.72;100.00
15914;BME280;8055;51.930;8.840;2023-04-01T00:48:27;74682.63;;;-145.72;100.00
15914;BME280;8055;51.930;8.840;2023-04-01T00:51:14;74674.34;;;-145.72;100.00
15914;BME280;8055;51.930;8.840;2023-04-01T00:53:47;74670.22;;;-145.72;100.00
15914;BME280;8055;51.930;8.840;2023-04-01T00:56:16;74684.69;;;-145.72;100.00
15914;BME280;8055;51.930;8.840;2023-04-01T00:58:55;74666.06;;;-145.72;100.00
15914;BME280;8055;51.930;8.840;2023-04-01T01:01:23;74670.22;;;-145.72;100.00
15914;BME280;8055;51.930;8.840;2023-04-01T01:03:49;74674.34;;;-145.72;100.00
15914;BME280;8055;51.930;8.840;2023-04-01T01:12:14;74672.28;;;-145.72;100.00
15914;BME280;8055;51.930;8.840;2023-04-01T01:15:37;74668.16;;;-145.72;100.00
15914;BME280;8055;51.930;8.840;2023-04-01T01:18:09;74676.41;;;-145.72;100.00
15914;BME280;8055;51.930;8.840;2023-04-01T01:23:57;74684.69;;;-145.72;100.00
15914;BME280;8055;51.930;8.840;2023-04-01T01:29:14;74688.84;;;-145.72;100.00
15914;BME280;8055;51.930;8.840;2023-04-01T01:32:10;74674.34;;;-145.72;100.00
15914;BME280;8055;51.930;8.840;2023-04-01T01:37:16;74686.75;;;-145.72;100.00
15914;BME280;8055;51.930;8.840;2023-04-01T01:39:44;74680.56;;;-145.72;100.00
15914;BME280;8055;51.930;8.840;2023-04-01T01:42:15;74682.63;;;-145.72;100.00
15914;BME280;8055;51.930;8.840;2023-04-01T01:44:44;74682.63;;;-145.72;100.00
15914;BME280;8055;51.930;8.840;2023-04-01T01:47:12;74684.69;;;-145.72;100.00
15914;BME280;8055;51.930;8.840;2023-04-01T01:49:39;74682.63;;;-145.72;100.00
15914;BME280;8055;51.930;8.840;2023-04-01T01:52:06;74674.34;;;-145.72;100.00
15914;BME280;8055;51.930;8.840;2023-04-01T01:54:31;74682.63;;;-145.72;100.00
15914;BME280;8055;51.930;8.840;2023-04-01T01:57:05;74672.28;;;-145.72;100.00
15914;BME280;8055;51.930;8.840;2023-04-01T01:59:33;74682.63;;;-145.72;100.00
15914;BME280;8055;51.930;8.840;2023-04-01T02:02:00;74682.63;;;-145.72;100.00
15914;BME280;8055;51.930;8.840;2023-04-01T02:04:34;74674.34;;;-145.72;100.00
15914;BME280;8055;51.930;8.840;2023-04-01T02:07:03;74668.16;;;-145.72;100.00
15914;BME280;8055;51.930;8.840;2023-04-01T02:09:31;74668.16;;;-145.72;100.00
15914;BME280;8055;51.930;8.840;2023-04-01T02:12:03;74668.16;;;-145.72;100.00
15914;BME280;8055;51.930;8.840;2023-04-01T02:17:11;74668.16;;;-145.72;100.00
15914;BME280;8055;51.930;8.840;2023-04-01T02:19:39;74668.16;;;-145.72;100.00
15914;BME280;8055;51.930;8.840;2023-04-01T02:22:10;74672.28;;;-145.72;100.00
15914;BME280;8055;51.930;8.840;2023-04-01T02:24:40;74678.50;;;-145.72;100.00
15914;BME280;8055;51.930;8.840;2023-04-01T02:27:06;74680.56;;;-145.72;100.00
15914;BME280;8055;51.930;8.840;2023-04-01T02:29:32;74674.34;;;-145.72;100.00
15914;BME280;8055;51.930;8.840;2023-04-01T02:31:58;74680.56;;;-145.72;100.00
15914;BME280;8055;51.930;8.840;2023-04-01T02:34:24;74684.69;;;-145.72;100.00
15914;BME280;8055;51.930;8.840;2023-04-01T02:36:50;74682.63;;;-145.72;100.00
15914;BME280;8055;51.930;8.840;2023-04-01T02:39:16;74686.75;;;-145.72;100.00
15914;BME280;8055;51.930;8.840;2023-04-01T02:41:44;74688.84;;;-145.72;100.00
15914;BME280;8055;51.930;8.840;2023-04-01T02:44:11;74686.75;;;-145.72;100.00
15914;BME280;8055;51.930;8.840;2023-04-01T02:46:36;74686.75;;;-145.72;100.00
15914;BME280;8055;51.930;8.840;2023-04-01T02:49:02;74695.03;;;-145.72;100.00
15914;BME280;8055;51.930;8.840;2023-04-01T02:51:28;74697.09;;;-145.72;100.00
15914;BME280;8055;51.930;8.840;2023-04-01T02:53:53;74692.97;;;-145.72;100.00
15914;BME280;8055;51.930;8.840;2023-04-01T02:56:19;74692.97;;;-145.72;100.00
15914;BME280;8055;51.930;8.840;2023-04-01T02:58:45;74695.03;;;-145.72;100.00
15914;BME280;8055;51.930;8.840;2023-04-01T03:01:11;74688.84;;;-145.72;100.00
15914;BME280;8055;51.930;8.840;2023-04-01T03:03:37;74692.97;;;-145.72;100.00
15914;BME280;8055;51.930;8.840;2023-04-01T03:06:12;74692.97;;;-145.72;100.00
15914;BME280;8055;51.930;8.840;2023-04-01T03:08:38;74699.19;;;-145.72;100.00
15914;BME280;8055;51.930;8.840;2023-04-01T03:11:03;74699.19;;;-145.72;100.00
15914;BME280;8055;51.930;8.840;2023-04-01T03:13:29;74703.31;;;-145.72;100.00
15914;BME280;8055;51.930;8.840;2023-04-01T03:15:54;74701.25;;;-145.72;100.00
15914;BME280;8055;51.930;8.840;2023-04-01T03:18:20;74699.19;;;-145.72;100.00
15914;BME280;8055;51.930;8.840;2023-04-01T03:20:45;74695.03;;;-145.72;100.00
15914;BME280;8055;51.930;8.840;2023-04-01T03:23:11;74703.31;;;-145.72;100.00
15914;BME280;8055;51.930;8.840;2023-04-01T03:25:36;74709.53;;;-145.72;100.00
15914;BME280;8055;51.930;8.840;2023-04-01T03:28:02;74707.44;;;-145.72;100.00
15914;BME280;8055;51.930;8.840;2023-04-01T03:30:28;74703.31;;;-145.72;100.00
15914;BME280;8055;51.930;8.840;2023-04-01T03:32:56;74701.25;;;-145.72;100.00
15914;BME280;8055;51.930;8.840;2023-04-01T03:35:22;74703.31;;;-145.72;100.00
15914;BME280;8055;51.930;8.840;2023-04-01T03:37:47;74703.31;;;-145.72;100.00
15914;BME280;8055;51.930;8.840;2023-04-01T03:40:12;74707.44;;;-145.72;100.00
15914;BME280;8055;51.930;8.840;2023-04-01T03:42:38;74705.38;;;-145.72;100.00
15914;BME280;8055;51.930;8.840;2023-04-01T03:45:04;74703.31;;;-145.72;100.00
15914;BME280;8055;51.930;8.840;2023-04-01T03:47:30;74709.53;;;-145.72;100.00
15914;BME280;8055;51.930;8.840;2023-04-01T03:49:55;74703.31;;;-145.72;100.00
15914;BME280;8055;51.930;8.840;2023-04-01T03:52:21;74711.59;;;-145.72;100.00
15914;BME280;8055;51.930;8.840;2023-04-01T03:54:46;74701.25;;;-145.72;100.00
15914;BME280;8055;51.930;8.840;2023-04-01T03:57:12;74701.25;;;-145.72;100.00
15914;BME280;8055;51.930;8.840;2023-04-01T03:59:37;74695.03;;;-145.72;100.00
15914;BME280;8055;51.930;8.840;2023-04-01T04:02:03;74707.44;;;-145.72;100.00
15914;BME280;8055;51.930;8.840;2023-04-01T04:04:29;74709.53;;;-145.72;100.00
15914;BME280;8055;51.930;8.840;2023-04-01T04:06:55;74707.44;;;-145.72;100.00
15914;BME280;8055;51.930;8.840;2023-04-01T04:09:21;74707.44;;;-145.72;100.00
15914;BME280;8055;51.930;8.840;2023-04-01T04:11:47;74707.44;;;-145.72;100.00
15914;BME280;8055;51.930;8.840;2023-04-01T04:14:13;74709.53;;;-145.72;100.00
15914;BME280;8055;51.930;8.840;2023-04-01T04:16:38;74715.72;;;-145.72;100.00
15914;BME280;8055;51.930;8.840;2023-04-01T04:19:04;74717.78;;;-145.72;100.00
15914;BME280;8055;51.930;8.840;2023-04-01T04:21:30;74719.88;;;-145.72;100.00
15914;BME280;8055;51.930;8.840;2023-04-01T04:23:55;74715.72;;;-145.72;100.00
15914;BME280;8055;51.930;8.840;2023-04-01T04:26:20;74713.66;;;-145.72;100.00
15914;BME280;8055;51.930;8.840;2023-04-01T04:28:46;74711.59;;;-145.72;100.00
15914;BME280;8055;51.930;8.840;2023-04-01T04:31:11;74717.78;;;-145.72;100.00
15914;BME280;8055;51.930;8.840;2023-04-01T04:33:37;74715.72;;;-145.72;100.00
15914;BME280;8055;51.930;8.840;2023-04-01T04:36:03;74711.59;;;-145.72;100.00
15914;BME280;8055;51.930;8.840;2023-04-01T04:38:29;74724.00;;;-145.72;100.00
15914;BME280;8055;51.930;8.840;2023-04-01T04:40:55;74724.00;;;-145.72;100.00
15914;BME280;8055;51.930;8.840;2023-04-01T04:43:20;74724.00;;;-145.72;100.00
15914;BME280;8055;51.930;8.840;2023-04-01T04:45:46;74726.06;;;-145.72;100.00
15914;BME280;8055;51.930;8.840;2023-04-01T04:48:13;74728.13;;;-145.72;100.00
15914;BME280;8055;51.930;8.840;2023-04-01T04:50:44;74732.28;;;-145.72;100.00
15914;BME280;8055;51.930;8.840;2023-04-01T04:53:13;74740.56;;;-145.72;100.00
15914;BME280;8055;51.930;8.840;2023-04-01T04:55:49;74736.41;;;-145.72;100.00
15914;BME280;8055;51.930;8.840;2023-04-01T04:58:15;74740.56;;;-145.72;100.00
15914;BME280;8055;51.930;8.840;2023-04-01T05:00:41;74738.47;;;-145.72;100.00
15914;BME280;8055;51.930;8.840;2023-04-01T05:03:07;74742.63;;;-145.72;100.00
15914;BME280;8055;51.930;8.840;2023-04-01T05:05:32;74740.56;;;-145.72;100.00
15914;BME280;8055;51.930;8.840;2023-04-01T05:07:58;74740.56;;;-145.72;100.00
15914;BME280;8055;51.930;8.840;2023-04-01T05:10:23;74742.63;;;-145.72;100.00
15914;BME280;8055;51.930;8.840;2023-04-01T05:12:49;74740.56;;;-145.72;100.00
15914;BME280;8055;51.930;8.840;2023-04-01T05:15:14;74744.69;;;-145.72;100.00
15914;BME280;8055;51.930;8.840;2023-04-01T05:17:40;74740.56;;;-145.72;100.00
15914;BME280;8055;51.930;8.840;2023-04-01T05:20:06;74740.56;;;-145.72;100.00
15914;BME280;8055;51.930;8.840;2023-04-01T05:22:32;74748.81;;;-145.72;100.00
15914;BME280;8055;51.930;8.840;2023-04-01T05:24:57;74748.81;;;-145.72;100.00
15914;BME280;8055;51.930;8.840;2023-04-01T05:27:22;74742.63;;;-145.72;100.00
15914;BME280;8055;51.930;8.840;2023-04-01T05:29:48;74748.81;;;-145.72;100.00
15914;BME280;8055;51.930;8.840;2023-04-01T05:32:13;74744.69;;;-145.72;100.00
15914;BME280;8055;51.930;8.840;2023-04-01T05:34:39;74748.81;;;-145.72;100.00
15914;BME280;8055;51.930;8.840;2023-04-01T05:37:04;74752.97;;;-145.72;100.00
15914;BME280;8055;51.930;8.840;2023-04-01T05:39:30;74757.09;;;-145.72;100.00
15914;BME280;8055;51.930;8.840;2023-04-01T05:41:55;74755.03;;;-145.72;100.00
15914;BME280;8055;51.930;8.840;2023-04-01T05:44:20;74765.38;;;-145.72;100.00
15914;BME280;8055;51.930;8.840;2023-04-01T05:46:46;74765.38;;;-145.72;100.00
15914;BME280;8055;51.930;8.840;2023-04-01T05:49:11;74771.56;;;-145.72;100.00
15914;BME280;8055;51.930;8.840;2023-04-01T05:51:37;74763.31;;;-145.72;100.00
15914;BME280;8055;51.930;8.840;2023-04-01T05:54:04;74769.50;;;-145.72;100.00
15914;BME280;8055;51.930;8.840;2023-04-01T05:56:30;74771.56;;;-145.72;100.00
15914;BME280;8055;51.930;8.840;2023-04-01T05:58:55;74771.56;;;-145.72;100.00
15914;BME280;8055;51.930;8.840;2023-04-01T06:01:20;74769.50;;;-145.72;100.00
15914;BME280;8055;51.930;8.840;2023-04-01T06:03:46;74767.44;;;-145.72;100.00
15914;BME280;8055;51.930;8.840;2023-04-01T06:06:14;74773.66;;;-145.72;100.00
15914;BME280;8055;51.930;8.840;2023-04-01T06:08:41;74765.38;;;-145.72;100.00
15914;BME280;8055;51.930;8.840;2023-04-01T06:22:08;74773.66;;;-145.72;100.00
15914;BME280;8055;51.930;8.840;2023-04-01T06:32:44;74765.38;;;-145.72;100.00
15914;BME280;8055;51.930;8.840;2023-04-01T06:35:20;74769.50;;;-145.72;100.00
15914;BME280;8055;51.930;8.840;2023-04-01T06:38:11;74765.38;;;-145.72;100.00
15914;BME280;8055;51.930;8.840;2023-04-01T06:40:55;74767.44;;;-145.72;100.00
15914;BME280;8055;51.930;8.840;2023-04-01T06:46:41;74761.22;;;-145.72;100.00
15914;BME280;8055;51.930;8.840;2023-04-01T06:52:20;74755.03;;;-145.72;100.00
15914;BME280;8055;51.930;8.840;2023-04-01T06:55:00;74744.69;;;-145.72;100.00
15914;BME280;8055;51.930;8.840;2023-04-01T06:57:43;74740.56;;;-145.72;100.00
15914;BME280;8055;51.930;8.840;2023-04-01T07:03:06;74742.63;;;-145.72;100.00
15914;BME280;8055;51.930;8.840;2023-04-01T07:05:35;74732.28;;;-145.72;100.00
15914;BME280;8055;51.930;8.840;2023-04-01T07:08:06;74724.00;;;-145.72;100.00
15914;BME280;8055;51.930;8.840;2023-04-01T07:13:04;74709.53;;;-145.72;100.00
15914;BME280;8055;51.930;8.840;2023-04-01T07:15:40;74701.25;;;-145.72;100.00
15914;BME280;8055;51.930;8.840;2023-04-01T07:18:19;74705.38;;;-145.72;100.00
15914;BME280;8055;51.930;8.840;2023-04-01T07:20:48;74703.31;;;-145.72;100.00
15914;BME280;8055;51.930;8.840;2023-04-01T07:23:23;74707.44;;;-145.72;100.00
15914;BME280;8055;51.930;8.840;2023-04-01T07:25:53;74703.31;;;-145.72;100.00
15914;BME280;8055;51.930;8.840;2023-04-01T07:28:20;74703.31;;;-145.72;100.00
15914;BME280;8055;51.930;8.840;2023-04-01T07:31:00;74711.59;;;-145.72;100.00
15914;BME280;8055;51.930;8.840;2023-04-01T07:33:46;74701.25;;;-145.72;100.00
15914;BME280;8055;51.930;8.840;2023-04-01T07:39:05;74707.44;;;-145.72;100.00
15914;BME280;8055;51.930;8.840;2023-04-01T07:44:15;74703.31;;;-145.72;100.00
15914;BME280;8055;51.930;8.840;2023-04-01T07:47:11;74717.78;;;-145.72;100.00
15914;BME280;8055;51.930;8.840;2023-04-01T07:55:22;74719.88;;;-145.72;100.00
15914;BME280;8055;51.930;8.840;2023-04-01T07:57:55;74713.66;;;-145.72;100.00
15914;BME280;8055;51.930;8.840;2023-04-01T08:00:57;74711.59;;;-145.72;100.00
15914;BME280;8055;51.930;8.840;2023-04-01T08:03:29;74701.25;;;-145.72;100.00
15914;BME280;8055;51.930;8.840;2023-04-01T08:06:18;74705.38;;;-145.72;100.00
15914;BME280;8055;51.930;8.840;2023-04-01T08:08:51;74705.38;;;-145.72;100.00
15914;BME280;8055;51.930;8.840;2023-04-01T08:11:40;74688.84;;;-145.72;100.00
15914;BME280;8055;51.930;8.840;2023-04-01T08:16:41;74692.97;;;-145.72;100.00
15914;BME280;8055;51.930;8.840;2023-04-01T08:20:04;74682.63;;;-145.72;100.00
15914;BME280;8055;51.930;8.840;2023-04-01T08:22:09;74666.06;;;-145.72;100.00
15914;BME280;8055;51.930;8.840;2023-04-01T08:24:43;74661.94;;;-145.72;100.00
15914;BME280;8055;51.930;8.840;2023-04-01T08:27:22;74649.53;;;-145.72;100.00
15914;BME280;8055;51.930;8.840;2023-04-01T08:29:57;74649.53;;;-145.72;100.00
15914;BME280;8055;51.930;8.840;2023-04-01T08:32:28;74641.25;;;-145.72;100.00
15914;BME280;8055;51.930;8.840;2023-04-01T08:35:06;74630.91;;;-145.72;100.00
15914;BME280;8055;51.930;8.840;2023-04-01T08:37:35;74641.25;;;-145.72;100.00
15914;BME280;8055;51.930;8.840;2023-04-01T08:40:26;74645.38;;;-145.72;100.00
15914;BME280;8055;51.930;8.840;2023-04-01T08:43:20;74639.19;;;-145.72;100.00
15914;BME280;8055;51.930;8.840;2023-04-01T08:45:48;74637.13;;;-145.72;100.00
15914;BME280;8055;51.930;8.840;2023-04-01T08:56:36;74632.97;;;-145.72;100.00
15914;BME280;8055;51.930;8.840;2023-04-01T09:05:15;74593.69;;;-145.72;100.00
15914;BME280;8055;51.930;8.840;2023-04-01T09:08:02;74593.69;;;-145.72;100.00
15914;BME280;8055;51.930;8.840;2023-04-01T09:16:04;74577.13;;;-145.72;100.00
15914;BME280;8055;51.930;8.840;2023-04-01T09:21:38;74566.78;;;-145.72;100.00
15914;BME280;8055;51.930;8.840;2023-04-01T09:40:53;74575.06;;;-145.72;100.00
15914;BME280;8055;51.930;8.840;2023-04-01T09:43:26;74579.19;;;-145.72;100.00
15914;BME280;8055;51.930;8.840;2023-04-01T09:46:11;74577.13;;;-145.72;100.00
15914;BME280;8055;51.930;8.840;2023-04-01T09:57:05;74564.72;;;-145.72;100.00
15914;BME280;8055;51.930;8.840;2023-04-01T10:02:38;74531.63;;;-145.72;100.00
15914;BME280;8055;51.930;8.840;2023-04-01T10:05:41;74515.06;;;-145.72;100.00
15914;BME280;8055;51.930;8.840;2023-04-01T10:11:03;74510.94;;;-145.72;100.00
15914;BME280;8055;51.930;8.840;2023-04-01T10:21:37;74513.00;;;-145.72;100.00
15914;BME280;8055;51.930;8.840;2023-04-01T10:27:09;74504.72;;;-145.72;100.00
15914;BME280;8055;51.930;8.840;2023-04-01T10:38:13;74490.25;;;-145.72;100.00
15914;BME280;8055;51.930;8.840;2023-04-01T10:41:08;74496.44;;;-145.72;100.00
15914;BME280;8055;51.930;8.840;2023-04-01T10:44:02;74498.53;;;-145.72;100.00
15914;BME280;8055;51.930;8.840;2023-04-01T11:06:15;74529.53;;;-145.72;100.00
15914;BME280;8055;51.930;8.840;2023-04-01T11:36:41;74450.94;;;-145.72;100.00
15914;BME280;8055;51.930;8.840;2023-04-01T11:42:28;74426.13;;;-145.72;100.00
15914;BME280;8055;51.930;8.840;2023-04-01T11:45:24;74426.13;;;-145.72;100.00
15914;BME280;8055;51.930;8.840;2023-04-01T11:51:07;74428.19;;;-145.72;100.00
15914;BME280;8055;51.930;8.840;2023-04-01T11:59:29;74461.28;;;-145.72;100.00
15914;BME280;8055;51.930;8.840;2023-04-01T12:02:14;74459.22;;;-145.72;100.00
15914;BME280;8055;51.930;8.840;2023-04-01T12:12:36;74463.34;;;-145.72;100.00
15914;BME280;8055;51.930;8.840;2023-04-01T12:21:28;74492.31;;;-145.72;100.00
15914;BME280;8055;51.930;8.840;2023-04-01T12:38:48;74523.34;;;-145.72;100.00
15914;BME280;8055;51.930;8.840;2023-04-01T12:41:47;74527.47;;;-145.72;100.00
15914;BME280;8055;51.930;8.840;2023-04-01T12:44:29;74556.44;;;-145.72;100.00
15914;BME280;8055;51.930;8.840;2023-04-01T12:49:56;74575.06;;;-145.72;100.00
15914;BME280;8055;51.930;8.840;2023-04-01T12:58:06;74577.13;;;-145.72;100.00
15914;BME280;8055;51.930;8.840;2023-04-01T13:00:54;74583.34;;;-145.72;100.00
15914;BME280;8055;51.930;8.840;2023-04-01T13:03:44;74601.94;;;-145.72;100.00
15914;BME280;8055;51.930;8.840;2023-04-01T13:09:16;74599.88;;;-145.72;100.00
15914;BME280;8055;51.930;8.840;2023-04-01T13:14:59;74604.00;;;-145.72;100.00
15914;BME280;8055;51.930;8.840;2023-04-01T13:17:42;74604.00;;;-145.72;100.00
15914;BME280;8055;51.930;8.840;2023-04-01T13:26:07;74604.00;;;-145.72;100.00
15914;BME280;8055;51.930;8.840;2023-04-01T13:29:16;74591.59;;;-145.72;100.00
15914;BME280;8055;51.930;8.840;2023-04-01T13:32:10;74587.47;;;-145.72;100.00
15914;BME280;8055;51.930;8.840;2023-04-01T13:41:27;74612.28;;;-145.72;100.00
15914;BME280;8055;51.930;8.840;2023-04-01T13:43:37;74628.84;;;-145.72;100.00
15914;BME280;8055;51.930;8.840;2023-04-01T13:46:28;74639.19;;;-145.72;100.00
15914;BME280;8055;51.930;8.840;2023-04-01T13:57:01;74659.88;;;-145.72;100.00
15914;BME280;8055;51.930;8.840;2023-04-01T14:00:06;74666.06;;;-145.72;100.00
15914;BME280;8055;51.930;8.840;2023-04-01T14:02:49;74666.06;;;-145.72;100.00
15914;BME280;8055;51.930;8.840;2023-04-01T14:05:42;74670.22;;;-145.72;100.00
15914;BME280;8055;51.930;8.840;2023-04-01T14:14:11;74686.75;;;-145.72;100.00
15914;BME280;8055;51.930;8.840;2023-04-01T14:17:02;74690.91;;;-145.72;100.00
15914;BME280;8055;51.930;8.840;2023-04-01T14:19:45;74684.69;;;-145.72;100.00
15914;BME280;8055;51.930;8.840;2023-04-01T14:25:10;74686.75;;;-145.72;100.00
15914;BME280;8055;51.930;8.840;2023-04-01T14:28:08;74680.56;;;-145.72;100.00
15914;BME280;8055;51.930;8.840;2023-04-01T14:30:55;74697.09;;;-145.72;100.00
15914;BME280;8055;51.930;8.840;2023-04-01T14:33:34;74695.03;;;-145.72;100.00
15914;BME280;8055;51.930;8.840;2023-04-01T14:39:27;74703.31;;;-145.72;100.00
15914;BME280;8055;51.930;8.840;2023-04-01T14:47:53;74719.88;;;-145.72;100.00
15914;BME280;8055;51.930;8.840;2023-04-01T14:51:02;74717.78;;;-145.72;100.00
15914;BME280;8055;51.930;8.840;2023-04-01T14:56:00;74732.28;;;-145.72;100.00
15914;BME280;8055;51.930;8.840;2023-04-01T14:58:47;74721.94;;;-145.72;100.00
15914;BME280;8055;51.930;8.840;2023-04-01T15:07:45;74726.06;;;-145.72;100.00
15914;BME280;8055;51.930;8.840;2023-04-01T15:12:34;74740.56;;;-145.72;100.00
15914;BME280;8055;51.930;8.840;2023-04-01T15:29:58;74794.34;;;-145.72;100.00
15914;BME280;8055;51.930;8.840;2023-04-01T15:41:02;74817.09;;;-145.72;100.00
15914;BME280;8055;51.930;8.840;2023-04-01T15:43:48;74821.22;;;-145.72;100.00
15914;BME280;8055;51.930;8.840;2023-04-01T15:46:41;74833.63;;;-145.72;100.00
15914;BME280;8055;51.930;8.840;2023-04-01T15:55:09;74862.59;;;-145.72;100.00
15914;BME280;8055;51.930;8.840;2023-04-01T16:08:57;74908.13;;;-145.72;100.00
15914;BME280;8055;51.930;8.840;2023-04-01T16:11:34;74914.31;;;-145.72;100.00
15914;BME280;8055;51.930;8.840;2023-04-01T16:25:33;74928.81;;;-145.72;100.00
15914;BME280;8055;51.930;8.840;2023-04-01T16:28:28;74930.88;;;-145.72;100.00
15914;BME280;8055;51.930;8.840;2023-04-01T16:33:55;74928.81;;;-145.72;100.00
15914;BME280;8055;51.930;8.840;2023-04-01T16:36:33;74935.00;;;-145.72;100.00
15914;BME280;8055;51.930;8.840;2023-04-01T16:42:23;74937.06;;;-145.72;100.00
15914;BME280;8055;51.930;8.840;2023-04-01T16:47:21;74937.06;;;-145.72;100.00
15914;BME280;8055;51.930;8.840;2023-04-01T16:55:41;74949.50;;;-145.72;100.00
15914;BME280;8055;51.930;8.840;2023-04-01T16:58:10;74957.78;;;-145.72;100.00
15914;BME280;8055;51.930;8.840;2023-04-01T17:00:49;74955.69;;;-145.72;100.00
15914;BME280;8055;51.930;8.840;2023-04-01T17:03:41;74963.97;;;-145.72;100.00
15914;BME280;8055;51.930;8.840;2023-04-01T17:09:12;74976.38;;;-145.72;100.00
15914;BME280;8055;51.930;8.840;2023-04-01T17:14:52;74986.72;;;-145.72;100.00
15914;BME280;8055;51.930;8.840;2023-04-01T17:17:35;74997.06;;;-145.72;100.00
15914;BME280;8055;51.930;8.840;2023-04-01T17:20:12;75009.50;;;-145.72;100.00
15914;BME280;8055;51.930;8.840;2023-04-01T17:41:54;75071.56;;;-145.72;100.00
15914;BME280;8055;51.930;8.840;2023-04-01T18:01:02;75185.34;;;-145.72;100.00
15914;BME280;8055;51.930;8.840;2023-04-01T18:09:05;75218.44;;;-145.72;100.00
15914;BME280;8055;51.930;8.840;2023-04-01T18:11:49;75235.00;;;-145.72;100.00
15914;BME280;8055;51.930;8.840;2023-04-01T18:22:57;75286.72;;;-145.72;100.00
15914;BME280;8055;51.930;8.840;2023-04-01T18:25:44;75297.06;;;-145.72;100.00
15914;BME280;8055;51.930;8.840;2023-04-01T18:28:25;75319.81;;;-145.72;100.00
15914;BME280;8055;51.930;8.840;2023-04-01T18:33:44;75332.25;;;-145.72;100.00
15914;BME280;8055;51.930;8.840;2023-04-01T18:38:56;75344.66;;;-145.72;100.00
15914;BME280;8055;51.930;8.840;2023-04-01T18:41:31;75357.06;;;-145.72;100.00
15914;BME280;8055;51.930;8.840;2023-04-01T18:44:22;75371.56;;;-145.72;100.00
15914;BME280;8055;51.930;8.840;2023-04-01T18:50:27;75386.03;;;-145.72;100.00
15914;BME280;8055;51.930;8.840;2023-04-01T18:55:41;75417.06;;;-145.72;100.00
15914;BME280;8055;51.930;8.840;2023-04-01T19:06:54;75460.53;;;-145.72;100.00
15914;BME280;8055;51.930;8.840;2023-04-01T19:09:32;75464.66;;;-145.72;100.00
15914;BME280;8055;51.930;8.840;2023-04-01T19:12:28;75466.72;;;-145.72;100.00
15914;BME280;8055;51.930;8.840;2023-04-01T19:21:21;75503.97;;;-145.72;100.00
15914;BME280;8055;51.930;8.840;2023-04-01T19:24:13;75514.31;;;-145.72;100.00
15914;BME280;8055;51.930;8.840;2023-04-01T19:26:48;75518.44;;;-145.72;100.00
15914;BME280;8055;51.930;8.840;2023-04-01T19:32:43;75537.06;;;-145.72;100.00
15914;BME280;8055;51.930;8.840;2023-04-01T19:46:00;75580.53;;;-145.72;100.00
15914;BME280;8055;51.930;8.840;2023-04-01T19:54:28;75601.22;;;-145.72;100.00
15914;BME280;8055;51.930;8.840;2023-04-01T20:05:36;75646.75;;;-145.72;100.00
15914;BME280;8055;51.930;8.840;2023-04-01T20:14:29;75679.84;;;-145.72;100.00
15914;BME280;8055;51.930;8.840;2023-04-01T20:19:34;75704.69;;;-145.72;100.00
15914;BME280;8055;51.930;8.840;2023-04-01T20:22:04;75717.09;;;-145.72;100.00
15914;BME280;8055;51.930;8.840;2023-04-01T20:24:37;75727.44;;;-145.72;100.00
15914;BME280;8055;51.930;8.840;2023-04-01T20:29:55;75748.13;;;-145.72;100.00
15914;BME280;8055;51.930;8.840;2023-04-01T20:38:05;75781.25;;;-145.72;100.00
15914;BME280;8055;51.930;8.840;2023-04-01T20:40:46;75789.50;;;-145.72;100.00
15914;BME280;8055;51.930;8.840;2023-04-01T20:43:28;75797.78;;;-145.72;100.00
15914;BME280;8055;51.930;8.840;2023-04-01T20:46:16;75808.13;;;-145.72;100.00
15914;BME280;8055;51.930;8.840;2023-04-01T20:51:38;75822.63;;;-145.72;100.00
15914;BME280;8055;51.930;8.840;2023-04-01T20:57:06;75841.25;;;-145.72;100.00
15914;BME280;8055;51.930;8.840;2023-04-01T21:03:15;75853.66;;;-145.72;100.00
15914;BME280;8055;51.930;8.840;2023-04-01T21:08:27;75857.81;;;-145.72;100.00
15914;BME280;8055;51.930;8.840;2023-04-01T21:11:03;75870.22;;;-145.72;100.00
15914;BME280;8055;51.930;8.840;2023-04-01T21:16:25;75888.84;;;-145.72;100.00
15914;BME280;8055;51.930;8.840;2023-04-01T21:32:26;75919.88;;;-145.72;100.00
15914;BME280;8055;51.930;8.840;2023-04-01T21:37:46;75930.22;;;-145.72;100.00
15914;BME280;8055;51.930;8.840;2023-04-01T21:43:30;75944.72;;;-145.72;100.00
15914;BME280;8055;51.930;8.840;2023-04-01T21:57:20;75998.50;;;-145.72;100.00
15914;BME280;8055;51.930;8.840;2023-04-01T22:05:45;76046.09;;;-145.72;100.00